sensor_id;sensor_type;location;lat;lon;timestamp;P1;durP1;ratioP1;P2;durP2;ratioP2
12788;SDS011;6458;42.710;23.192;2022-09-28T00:02:15;5.27;;;4.77;;
12788;SDS011;6458;42.710;23.192;2022-09-28T00:04:42;7.33;;;5.27;;
12788;SDS011;6458;42.710;23.192;2022-09-28T00:07:09;8.73;;;5.57;;
12788;SDS011;6458;42.710;23.192;2022-09-28T00:09:36;5.77;;;5.27;;
12788;SDS011;6458;42.710;23.192;2022-09-28T00:12:03;5.80;;;5.20;;
12788;SDS011;6458;42.710;23.192;2022-09-28T00:14:30;5.33;;;4.87;;
12788;SDS011;6458;42.710;23.192;2022-09-28T00:16:57;5.67;;;5.10;;
12788;SDS011;6458;42.710;23.192;2022-09-28T00:19:26;5.53;;;5.10;;
12788;SDS011;6458;42.710;23.192;2022-09-28T00:21:52;5.70;;;5.10;;
12788;SDS011;6458;42.710;23.192;2022-09-28T00:24:19;7.77;;;6.00;;
12788;SDS011;6458;42.710;23.192;2022-09-28T00:26:46;5.33;;;4.83;;
12788;SDS011;6458;42.710;23.192;2022-09-28T00:29:15;7.00;;;5.53;;
12788;SDS011;6458;42.710;23.192;2022-09-28T00:31:43;9.53;;;5.80;;
12788;SDS011;6458;42.710;23.192;2022-09-28T00:34:09;9.67;;;5.80;;
12788;SDS011;6458;42.710;23.192;2022-09-28T00:36:38;7.03;;;4.60;;
12788;SDS011;6458;42.710;23.192;2022-09-28T00:39:05;7.07;;;5.57;;
12788;SDS011;6458;42.710;23.192;2022-09-28T00:41:32;6.93;;;5.07;;
12788;SDS011;6458;42.710;23.192;2022-09-28T00:46:41;3.70;;;3.50;;
12788;SDS011;6458;42.710;23.192;2022-09-28T00:49:09;4.63;;;4.23;;
12788;SDS011;6458;42.710;23.192;2022-09-28T00:51:39;4.70;;;3.53;;
12788;SDS011;6458;42.710;23.192;2022-09-28T00:54:07;5.70;;;4.27;;
12788;SDS011;6458;42.710;23.192;2022-09-28T00:56:34;4.23;;;3.97;;
12788;SDS011;6458;42.710;23.192;2022-09-28T00:59:02;3.90;;;3.60;;
12788;SDS011;6458;42.710;23.192;2022-09-28T01:01:29;6.43;;;4.93;;
12788;SDS011;6458;42.710;23.192;2022-09-28T01:03:56;5.87;;;4.23;;
12788;SDS011;6458;42.710;23.192;2022-09-28T01:06:24;5.07;;;4.47;;
12788;SDS011;6458;42.710;23.192;2022-09-28T01:08:56;4.00;;;3.70;;
12788;SDS011;6458;42.710;23.192;2022-09-28T01:11:23;3.93;;;3.63;;
12788;SDS011;6458;42.710;23.192;2022-09-28T01:13:51;3.23;;;2.97;;
12788;SDS011;6458;42.710;23.192;2022-09-28T01:16:21;3.17;;;2.90;;
12788;SDS011;6458;42.710;23.192;2022-09-28T01:18:51;3.20;;;3.00;;
12788;SDS011;6458;42.710;23.192;2022-09-28T01:21:20;3.77;;;3.50;;
12788;SDS011;6458;42.710;23.192;2022-09-28T01:26:39;4.67;;;3.40;;
12788;SDS011;6458;42.710;23.192;2022-09-28T01:29:11;4.00;;;3.70;;
12788;SDS011;6458;42.710;23.192;2022-09-28T01:31:39;3.80;;;3.50;;
12788;SDS011;6458;42.710;23.192;2022-09-28T01:34:08;3.67;;;3.43;;
12788;SDS011;6458;42.710;23.192;2022-09-28T01:36:38;3.07;;;2.87;;
12788;SDS011;6458;42.710;23.192;2022-09-28T01:39:07;5.70;;;3.90;;
12788;SDS011;6458;42.710;23.192;2022-09-28T01:41:35;3.80;;;3.50;;
12788;SDS011;6458;42.710;23.192;2022-09-28T01:44:06;5.63;;;3.60;;
12788;SDS011;6458;42.710;23.192;2022-09-28T01:46:36;6.47;;;4.10;;
12788;SDS011;6458;42.710;23.192;2022-09-28T01:49:04;4.30;;;3.90;;
12788;SDS011;6458;42.710;23.192;2022-09-28T01:51:33;5.40;;;4.60;;
12788;SDS011;6458;42.710;23.192;2022-09-28T01:54:02;5.70;;;4.13;;
12788;SDS011;6458;42.710;23.192;2022-09-28T01:56:35;4.17;;;3.60;;
12788;SDS011;6458;42.710;23.192;2022-09-28T01:59:04;3.40;;;3.20;;
12788;SDS011;6458;42.710;23.192;2022-09-28T02:01:35;3.80;;;3.50;;
12788;SDS011;6458;42.710;23.192;2022-09-28T02:04:04;4.37;;;4.00;;
12788;SDS011;6458;42.710;23.192;2022-09-28T02:06:32;8.23;;;4.10;;
12788;SDS011;6458;42.710;23.192;2022-09-28T02:09:05;4.23;;;3.93;;
12788;SDS011;6458;42.710;23.192;2022-09-28T02:11:33;3.53;;;3.23;;
12788;SDS011;6458;42.710;23.192;2022-09-28T02:14:02;4.27;;;3.57;;
12788;SDS011;6458;42.710;23.192;2022-09-28T02:16:31;4.47;;;3.83;;
12788;SDS011;6458;42.710;23.192;2022-09-28T02:19:01;4.33;;;4.03;;
12788;SDS011;6458;42.710;23.192;2022-09-28T02:21:30;4.30;;;3.90;;
12788;SDS011;6458;42.710;23.192;2022-09-28T02:23:59;4.73;;;4.30;;
12788;SDS011;6458;42.710;23.192;2022-09-28T02:26:28;4.60;;;4.23;;
12788;SDS011;6458;42.710;23.192;2022-09-28T02:28:55;5.80;;;4.23;;
12788;SDS011;6458;42.710;23.192;2022-09-28T02:31:23;4.60;;;3.90;;
12788;SDS011;6458;42.710;23.192;2022-09-28T02:33:51;4.80;;;4.30;;
12788;SDS011;6458;42.710;23.192;2022-09-28T02:36:20;4.87;;;3.57;;
12788;SDS011;6458;42.710;23.192;2022-09-28T02:38:47;5.37;;;4.10;;
12788;SDS011;6458;42.710;23.192;2022-09-28T02:41:18;3.57;;;3.27;;
12788;SDS011;6458;42.710;23.192;2022-09-28T02:43:51;9.43;;;4.00;;
12788;SDS011;6458;42.710;23.192;2022-09-28T02:46:21;2.90;;;2.70;;
12788;SDS011;6458;42.710;23.192;2022-09-28T02:48:54;4.23;;;3.23;;
12788;SDS011;6458;42.710;23.192;2022-09-28T02:51:33;3.50;;;3.30;;
12788;SDS011;6458;42.710;23.192;2022-09-28T02:54:05;3.80;;;3.10;;
12788;SDS011;6458;42.710;23.192;2022-09-28T02:56:41;4.13;;;3.83;;
12788;SDS011;6458;42.710;23.192;2022-09-28T02:59:12;3.57;;;3.27;;
12788;SDS011;6458;42.710;23.192;2022-09-28T03:01:48;4.70;;;2.93;;
12788;SDS011;6458;42.710;23.192;2022-09-28T03:04:20;3.27;;;3.00;;
12788;SDS011;6458;42.710;23.192;2022-09-28T03:06:53;9.07;;;3.60;;
12788;SDS011;6458;42.710;23.192;2022-09-28T03:09:24;3.43;;;3.13;;
12788;SDS011;6458;42.710;23.192;2022-09-28T03:11:52;4.40;;;2.87;;
12788;SDS011;6458;42.710;23.192;2022-09-28T03:14:23;3.30;;;3.00;;
12788;SDS011;6458;42.710;23.192;2022-09-28T03:16:50;3.00;;;2.80;;
12788;SDS011;6458;42.710;23.192;2022-09-28T03:19:17;3.93;;;3.47;;
12788;SDS011;6458;42.710;23.192;2022-09-28T03:21:46;2.93;;;2.73;;
12788;SDS011;6458;42.710;23.192;2022-09-28T03:24:14;4.10;;;3.20;;
12788;SDS011;6458;42.710;23.192;2022-09-28T03:26:41;3.20;;;3.00;;
12788;SDS011;6458;42.710;23.192;2022-09-28T03:29:07;3.77;;;3.47;;
12788;SDS011;6458;42.710;23.192;2022-09-28T03:31:34;3.70;;;3.40;;
12788;SDS011;6458;42.710;23.192;2022-09-28T03:34:01;3.73;;;3.43;;
12788;SDS011;6458;42.710;23.192;2022-09-28T03:36:28;4.43;;;3.47;;
12788;SDS011;6458;42.710;23.192;2022-09-28T03:38:54;3.40;;;3.20;;
12788;SDS011;6458;42.710;23.192;2022-09-28T03:41:23;4.03;;;3.73;;
12788;SDS011;6458;42.710;23.192;2022-09-28T03:43:51;3.87;;;3.57;;
12788;SDS011;6458;42.710;23.192;2022-09-28T03:46:18;4.63;;;3.80;;
12788;SDS011;6458;42.710;23.192;2022-09-28T03:48:45;5.13;;;3.53;;
12788;SDS011;6458;42.710;23.192;2022-09-28T03:51:12;4.70;;;3.83;;
12788;SDS011;6458;42.710;23.192;2022-09-28T03:53:38;4.03;;;3.73;;
12788;SDS011;6458;42.710;23.192;2022-09-28T03:56:06;5.13;;;3.43;;
12788;SDS011;6458;42.710;23.192;2022-09-28T03:58:34;4.77;;;3.80;;
12788;SDS011;6458;42.710;23.192;2022-09-28T04:01:01;4.97;;;4.47;;
12788;SDS011;6458;42.710;23.192;2022-09-28T04:03:28;4.10;;;3.80;;
12788;SDS011;6458;42.710;23.192;2022-09-28T04:05:55;10.00;;;5.73;;
12788;SDS011;6458;42.710;23.192;2022-09-28T04:08:22;5.63;;;5.13;;
12788;SDS011;6458;42.710;23.192;2022-09-28T04:10:49;7.13;;;5.83;;
12788;SDS011;6458;42.710;23.192;2022-09-28T04:13:15;6.80;;;5.53;;
12788;SDS011;6458;42.710;23.192;2022-09-28T04:15:50;5.23;;;4.77;;
12788;SDS011;6458;42.710;23.192;2022-09-28T04:18:17;6.07;;;5.43;;
12788;SDS011;6458;42.710;23.192;2022-09-28T04:20:43;6.13;;;5.20;;
12788;SDS011;6458;42.710;23.192;2022-09-28T04:23:12;5.07;;;4.67;;
12788;SDS011;6458;42.710;23.192;2022-09-28T04:25:39;5.67;;;4.63;;
12788;SDS011;6458;42.710;23.192;2022-09-28T04:28:06;5.13;;;4.60;;
12788;SDS011;6458;42.710;23.192;2022-09-28T04:30:52;5.33;;;4.80;;
12788;SDS011;6458;42.710;23.192;2022-09-28T04:33:19;5.73;;;5.33;;
12788;SDS011;6458;42.710;23.192;2022-09-28T04:35:45;4.97;;;4.63;;
12788;SDS011;6458;42.710;23.192;2022-09-28T04:38:12;5.47;;;5.07;;
12788;SDS011;6458;42.710;23.192;2022-09-28T04:40:39;5.43;;;4.87;;
12788;SDS011;6458;42.710;23.192;2022-09-28T04:43:05;5.63;;;5.10;;
12788;SDS011;6458;42.710;23.192;2022-09-28T04:45:32;6.23;;;4.63;;
12788;SDS011;6458;42.710;23.192;2022-09-28T04:48:00;5.37;;;4.67;;
12788;SDS011;6458;42.710;23.192;2022-09-28T04:50:27;5.27;;;4.77;;
12788;SDS011;6458;42.710;23.192;2022-09-28T04:52:54;5.10;;;4.60;;
12788;SDS011;6458;42.710;23.192;2022-09-28T04:55:21;5.53;;;4.53;;
12788;SDS011;6458;42.710;23.192;2022-09-28T04:57:47;5.50;;;4.77;;
12788;SDS011;6458;42.710;23.192;2022-09-28T05:00:14;7.00;;;4.93;;
12788;SDS011;6458;42.710;23.192;2022-09-28T05:02:41;4.83;;;4.33;;
12788;SDS011;6458;42.710;23.192;2022-09-28T05:05:11;7.83;;;5.13;;
12788;SDS011;6458;42.710;23.192;2022-09-28T05:07:37;4.90;;;4.50;;
12788;SDS011;6458;42.710;23.192;2022-09-28T05:10:06;5.33;;;4.83;;
12788;SDS011;6458;42.710;23.192;2022-09-28T05:12:32;6.93;;;5.27;;
12788;SDS011;6458;42.710;23.192;2022-09-28T05:14:59;5.77;;;5.27;;
12788;SDS011;6458;42.710;23.192;2022-09-28T05:17:26;7.77;;;6.50;;
12788;SDS011;6458;42.710;23.192;2022-09-28T05:19:53;6.23;;;5.63;;
12788;SDS011;6458;42.710;23.192;2022-09-28T05:22:21;5.63;;;5.10;;
12788;SDS011;6458;42.710;23.192;2022-09-28T05:24:48;4.43;;;3.90;;
12788;SDS011;6458;42.710;23.192;2022-09-28T05:27:14;5.40;;;4.90;;
12788;SDS011;6458;42.710;23.192;2022-09-28T05:29:41;4.60;;;4.20;;
12788;SDS011;6458;42.710;23.192;2022-09-28T05:32:08;6.87;;;4.30;;
12788;SDS011;6458;42.710;23.192;2022-09-28T05:34:34;4.40;;;4.10;;
12788;SDS011;6458;42.710;23.192;2022-09-28T05:37:01;4.73;;;3.60;;
12788;SDS011;6458;42.710;23.192;2022-09-28T05:39:29;3.90;;;3.67;;
12788;SDS011;6458;42.710;23.192;2022-09-28T05:41:56;5.40;;;4.10;;
12788;SDS011;6458;42.710;23.192;2022-09-28T05:44:23;4.80;;;3.67;;
12788;SDS011;6458;42.710;23.192;2022-09-28T05:46:51;5.17;;;3.27;;
12788;SDS011;6458;42.710;23.192;2022-09-28T05:49:18;3.97;;;3.53;;
12788;SDS011;6458;42.710;23.192;2022-09-28T05:51:45;7.20;;;2.87;;
12788;SDS011;6458;42.710;23.192;2022-09-28T05:54:11;4.07;;;3.63;;
12788;SDS011;6458;42.710;23.192;2022-09-28T05:56:40;4.20;;;3.37;;
12788;SDS011;6458;42.710;23.192;2022-09-28T05:59:06;3.27;;;3.00;;
12788;SDS011;6458;42.710;23.192;2022-09-28T06:01:33;4.87;;;4.17;;
12788;SDS011;6458;42.710;23.192;2022-09-28T06:04:00;4.90;;;4.50;;
12788;SDS011;6458;42.710;23.192;2022-09-28T06:06:27;6.00;;;4.87;;
12788;SDS011;6458;42.710;23.192;2022-09-28T06:08:54;5.60;;;4.97;;
12788;SDS011;6458;42.710;23.192;2022-09-28T06:11:21;9.50;;;5.37;;
12788;SDS011;6458;42.710;23.192;2022-09-28T06:13:53;8.70;;;5.13;;
12788;SDS011;6458;42.710;23.192;2022-09-28T06:16:20;5.63;;;5.10;;
12788;SDS011;6458;42.710;23.192;2022-09-28T06:18:47;5.33;;;4.80;;
12788;SDS011;6458;42.710;23.192;2022-09-28T06:21:14;5.17;;;4.77;;
12788;SDS011;6458;42.710;23.192;2022-09-28T06:23:43;6.03;;;5.50;;
12788;SDS011;6458;42.710;23.192;2022-09-28T06:26:10;5.60;;;5.10;;
12788;SDS011;6458;42.710;23.192;2022-09-28T06:28:37;6.30;;;5.17;;
12788;SDS011;6458;42.710;23.192;2022-09-28T06:31:06;6.10;;;5.60;;
12788;SDS011;6458;42.710;23.192;2022-09-28T06:33:32;6.43;;;5.83;;
12788;SDS011;6458;42.710;23.192;2022-09-28T06:36:01;5.63;;;5.13;;
12788;SDS011;6458;42.710;23.192;2022-09-28T06:38:28;4.80;;;4.40;;
12788;SDS011;6458;42.710;23.192;2022-09-28T06:40:55;4.43;;;4.03;;
12788;SDS011;6458;42.710;23.192;2022-09-28T06:43:23;4.47;;;4.10;;
12788;SDS011;6458;42.710;23.192;2022-09-28T06:45:50;4.77;;;4.43;;
12788;SDS011;6458;42.710;23.192;2022-09-28T06:48:18;4.60;;;4.20;;
12788;SDS011;6458;42.710;23.192;2022-09-28T06:50:45;4.27;;;3.97;;
12788;SDS011;6458;42.710;23.192;2022-09-28T06:53:13;4.77;;;4.43;;
12788;SDS011;6458;42.710;23.192;2022-09-28T06:55:40;5.20;;;4.30;;
12788;SDS011;6458;42.710;23.192;2022-09-28T06:58:08;5.00;;;4.50;;
12788;SDS011;6458;42.710;23.192;2022-09-28T07:00:36;5.57;;;4.87;;
12788;SDS011;6458;42.710;23.192;2022-09-28T07:03:03;5.27;;;4.87;;
12788;SDS011;6458;42.710;23.192;2022-09-28T07:05:33;6.97;;;5.73;;
12788;SDS011;6458;42.710;23.192;2022-09-28T07:08:01;6.93;;;6.33;;
12788;SDS011;6458;42.710;23.192;2022-09-28T07:10:28;6.90;;;6.30;;
12788;SDS011;6458;42.710;23.192;2022-09-28T07:12:55;6.70;;;6.03;;
12788;SDS011;6458;42.710;23.192;2022-09-28T07:15:23;7.27;;;6.53;;
12788;SDS011;6458;42.710;23.192;2022-09-28T07:17:52;5.80;;;5.40;;
12788;SDS011;6458;42.710;23.192;2022-09-28T07:20:22;5.50;;;4.97;;
12788;SDS011;6458;42.710;23.192;2022-09-28T07:22:53;5.87;;;5.37;;
12788;SDS011;6458;42.710;23.192;2022-09-28T07:25:20;5.90;;;5.30;;
12788;SDS011;6458;42.710;23.192;2022-09-28T07:27:47;6.20;;;5.60;;
12788;SDS011;6458;42.710;23.192;2022-09-28T07:30:13;8.23;;;6.33;;
12788;SDS011;6458;42.710;23.192;2022-09-28T07:32:40;9.53;;;6.70;;
12788;SDS011;6458;42.710;23.192;2022-09-28T07:35:07;8.07;;;6.53;;
12788;SDS011;6458;42.710;23.192;2022-09-28T07:37:34;10.97;;;6.60;;
12788;SDS011;6458;42.710;23.192;2022-09-28T07:40:03;9.43;;;5.03;;
12788;SDS011;6458;42.710;23.192;2022-09-28T07:42:47;7.87;;;5.43;;
12788;SDS011;6458;42.710;23.192;2022-09-28T07:45:14;5.73;;;5.23;;
12788;SDS011;6458;42.710;23.192;2022-09-28T07:47:41;5.83;;;5.37;;
12788;SDS011;6458;42.710;23.192;2022-09-28T07:50:09;6.80;;;5.10;;
12788;SDS011;6458;42.710;23.192;2022-09-28T07:52:36;9.07;;;6.07;;
12788;SDS011;6458;42.710;23.192;2022-09-28T07:55:05;7.20;;;6.10;;
12788;SDS011;6458;42.710;23.192;2022-09-28T07:57:32;9.10;;;6.43;;
12788;SDS011;6458;42.710;23.192;2022-09-28T07:59:59;9.30;;;6.93;;
12788;SDS011;6458;42.710;23.192;2022-09-28T08:02:26;9.00;;;7.20;;
12788;SDS011;6458;42.710;23.192;2022-09-28T08:04:57;9.90;;;8.00;;
12788;SDS011;6458;42.710;23.192;2022-09-28T08:07:24;9.83;;;7.83;;
12788;SDS011;6458;42.710;23.192;2022-09-28T08:12:48;9.17;;;6.23;;
12788;SDS011;6458;42.710;23.192;2022-09-28T08:15:19;5.77;;;5.27;;
12788;SDS011;6458;42.710;23.192;2022-09-28T08:17:46;7.70;;;5.70;;
12788;SDS011;6458;42.710;23.192;2022-09-28T08:20:12;6.43;;;5.67;;
12788;SDS011;6458;42.710;23.192;2022-09-28T08:23:01;6.87;;;5.33;;
12788;SDS011;6458;42.710;23.192;2022-09-28T08:25:27;7.87;;;5.00;;
12788;SDS011;6458;42.710;23.192;2022-09-28T08:27:56;7.37;;;5.10;;
12788;SDS011;6458;42.710;23.192;2022-09-28T08:30:22;6.87;;;4.90;;
12788;SDS011;6458;42.710;23.192;2022-09-28T08:32:49;8.77;;;5.83;;
12788;SDS011;6458;42.710;23.192;2022-09-28T08:35:16;9.47;;;6.37;;
12788;SDS011;6458;42.710;23.192;2022-09-28T08:37:47;7.17;;;5.50;;
12788;SDS011;6458;42.710;23.192;2022-09-28T08:40:15;9.40;;;6.40;;
12788;SDS011;6458;42.710;23.192;2022-09-28T08:42:44;6.73;;;6.13;;
12788;SDS011;6458;42.710;23.192;2022-09-28T08:45:13;10.10;;;6.73;;
12788;SDS011;6458;42.710;23.192;2022-09-28T08:47:46;7.63;;;6.90;;
12788;SDS011;6458;42.710;23.192;2022-09-28T08:50:31;8.03;;;7.23;;
12788;SDS011;6458;42.710;23.192;2022-09-28T08:53:01;7.80;;;6.60;;
12788;SDS011;6458;42.710;23.192;2022-09-28T08:55:30;7.63;;;5.30;;
12788;SDS011;6458;42.710;23.192;2022-09-28T08:57:58;7.67;;;6.87;;
12788;SDS011;6458;42.710;23.192;2022-09-28T09:00:31;8.00;;;6.43;;
12788;SDS011;6458;42.710;23.192;2022-09-28T09:03:01;6.43;;;5.93;;
12788;SDS011;6458;42.710;23.192;2022-09-28T09:05:32;8.37;;;6.40;;
12788;SDS011;6458;42.710;23.192;2022-09-28T09:08:12;9.40;;;5.93;;
12788;SDS011;6458;42.710;23.192;2022-09-28T09:10:48;6.17;;;5.37;;
12788;SDS011;6458;42.710;23.192;2022-09-28T09:16:00;9.40;;;6.60;;
12788;SDS011;6458;42.710;23.192;2022-09-28T09:18:33;8.43;;;6.60;;
12788;SDS011;6458;42.710;23.192;2022-09-28T09:21:02;8.27;;;5.00;;
12788;SDS011;6458;42.710;23.192;2022-09-28T09:23:35;2.90;;;2.30;;
12788;SDS011;6458;42.710;23.192;2022-09-28T09:26:03;4.37;;;2.57;;
12788;SDS011;6458;42.710;23.192;2022-09-28T09:28:40;4.73;;;2.20;;
12788;SDS011;6458;42.710;23.192;2022-09-28T09:31:18;2.23;;;1.80;;
12788;SDS011;6458;42.710;23.192;2022-09-28T09:33:52;2.40;;;2.20;;
12788;SDS011;6458;42.710;23.192;2022-09-28T09:36:26;2.50;;;2.30;;
12788;SDS011;6458;42.710;23.192;2022-09-28T09:38:57;2.60;;;2.40;;
12788;SDS011;6458;42.710;23.192;2022-09-28T09:41:30;3.93;;;2.30;;
12788;SDS011;6458;42.710;23.192;2022-09-28T09:44:09;3.67;;;2.20;;
12788;SDS011;6458;42.710;23.192;2022-09-28T09:46:43;3.20;;;2.63;;
12788;SDS011;6458;42.710;23.192;2022-09-28T09:49:13;1.97;;;1.87;;
12788;SDS011;6458;42.710;23.192;2022-09-28T09:51:41;2.23;;;2.03;;
12788;SDS011;6458;42.710;23.192;2022-09-28T09:54:11;2.30;;;2.10;;
12788;SDS011;6458;42.710;23.192;2022-09-28T09:56:41;1.50;;;1.50;;
12788;SDS011;6458;42.710;23.192;2022-09-28T09:59:10;1.40;;;1.40;;
12788;SDS011;6458;42.710;23.192;2022-09-28T10:01:38;4.43;;;1.90;;
12788;SDS011;6458;42.710;23.192;2022-09-28T10:04:11;1.60;;;1.50;;
12788;SDS011;6458;42.710;23.192;2022-09-28T10:06:40;5.03;;;1.70;;
12788;SDS011;6458;42.710;23.192;2022-09-28T10:09:09;1.47;;;1.47;;
12788;SDS011;6458;42.710;23.192;2022-09-28T10:11:37;2.53;;;1.70;;
12788;SDS011;6458;42.710;23.192;2022-09-28T10:14:05;1.90;;;1.80;;
12788;SDS011;6458;42.710;23.192;2022-09-28T10:16:32;1.57;;;1.57;;
12788;SDS011;6458;42.710;23.192;2022-09-28T10:19:00;1.50;;;1.40;;
12788;SDS011;6458;42.710;23.192;2022-09-28T10:21:28;1.80;;;1.70;;
12788;SDS011;6458;42.710;23.192;2022-09-28T10:23:56;1.57;;;1.57;;
12788;SDS011;6458;42.710;23.192;2022-09-28T10:26:23;1.40;;;1.40;;
12788;SDS011;6458;42.710;23.192;2022-09-28T10:28:52;1.57;;;1.50;;
12788;SDS011;6458;42.710;23.192;2022-09-28T10:31:32;2.47;;;1.40;;
12788;SDS011;6458;42.710;23.192;2022-09-28T10:33:59;1.57;;;1.47;;
12788;SDS011;6458;42.710;23.192;2022-09-28T10:36:28;1.73;;;1.63;;
12788;SDS011;6458;42.710;23.192;2022-09-28T10:38:55;3.30;;;1.70;;
12788;SDS011;6458;42.710;23.192;2022-09-28T10:41:22;1.83;;;1.73;;
12788;SDS011;6458;42.710;23.192;2022-09-28T10:43:51;1.50;;;1.50;;
12788;SDS011;6458;42.710;23.192;2022-09-28T10:46:30;1.90;;;1.80;;
12788;SDS011;6458;42.710;23.192;2022-09-28T10:48:58;2.57;;;1.60;;
12788;SDS011;6458;42.710;23.192;2022-09-28T10:51:40;1.50;;;1.50;;
12788;SDS011;6458;42.710;23.192;2022-09-28T10:54:12;1.80;;;1.70;;
12788;SDS011;6458;42.710;23.192;2022-09-28T10:56:39;1.90;;;1.80;;
12788;SDS011;6458;42.710;23.192;2022-09-28T10:59:09;2.17;;;2.07;;
12788;SDS011;6458;42.710;23.192;2022-09-28T11:01:48;2.20;;;1.60;;
12788;SDS011;6458;42.710;23.192;2022-09-28T11:04:18;1.63;;;1.63;;
12788;SDS011;6458;42.710;23.192;2022-09-28T11:06:47;1.70;;;1.60;;
12788;SDS011;6458;42.710;23.192;2022-09-28T11:09:21;1.90;;;1.80;;
12788;SDS011;6458;42.710;23.192;2022-09-28T11:11:49;1.50;;;1.50;;
12788;SDS011;6458;42.710;23.192;2022-09-28T11:14:19;4.93;;;1.83;;
12788;SDS011;6458;42.710;23.192;2022-09-28T11:16:48;1.63;;;1.63;;
12788;SDS011;6458;42.710;23.192;2022-09-28T11:19:34;1.93;;;1.83;;
12788;SDS011;6458;42.710;23.192;2022-09-28T11:22:10;2.13;;;1.47;;
12788;SDS011;6458;42.710;23.192;2022-09-28T11:24:45;1.60;;;1.50;;
12788;SDS011;6458;42.710;23.192;2022-09-28T11:27:17;1.90;;;1.70;;
12788;SDS011;6458;42.710;23.192;2022-09-28T11:29:49;1.40;;;1.40;;
12788;SDS011;6458;42.710;23.192;2022-09-28T11:32:17;1.97;;;1.57;;
12788;SDS011;6458;42.710;23.192;2022-09-28T11:34:46;2.20;;;1.63;;
12788;SDS011;6458;42.710;23.192;2022-09-28T11:37:19;1.77;;;1.67;;
12788;SDS011;6458;42.710;23.192;2022-09-28T11:39:53;2.77;;;1.70;;
12788;SDS011;6458;42.710;23.192;2022-09-28T11:42:28;2.63;;;1.73;;
12788;SDS011;6458;42.710;23.192;2022-09-28T11:45:02;1.67;;;1.57;;
12788;SDS011;6458;42.710;23.192;2022-09-28T11:50:21;1.60;;;1.53;;
12788;SDS011;6458;42.710;23.192;2022-09-28T11:52:53;3.00;;;1.70;;
12788;SDS011;6458;42.710;23.192;2022-09-28T11:55:24;1.90;;;1.70;;
12788;SDS011;6458;42.710;23.192;2022-09-28T11:57:53;1.53;;;1.53;;
12788;SDS011;6458;42.710;23.192;2022-09-28T12:00:22;1.40;;;1.30;;
12788;SDS011;6458;42.710;23.192;2022-09-28T12:02:50;1.40;;;1.40;;
12788;SDS011;6458;42.710;23.192;2022-09-28T12:05:20;1.60;;;1.50;;
12788;SDS011;6458;42.710;23.192;2022-09-28T12:07:49;1.70;;;1.60;;
12788;SDS011;6458;42.710;23.192;2022-09-28T12:10:19;1.50;;;1.50;;
12788;SDS011;6458;42.710;23.192;2022-09-28T12:12:47;1.70;;;1.60;;
12788;SDS011;6458;42.710;23.192;2022-09-28T12:15:16;1.70;;;1.60;;
12788;SDS011;6458;42.710;23.192;2022-09-28T12:17:44;3.03;;;1.87;;
12788;SDS011;6458;42.710;23.192;2022-09-28T12:20:15;1.77;;;1.40;;
12788;SDS011;6458;42.710;23.192;2022-09-28T12:22:45;1.60;;;1.47;;
12788;SDS011;6458;42.710;23.192;2022-09-28T12:25:13;2.07;;;1.60;;
12788;SDS011;6458;42.710;23.192;2022-09-28T12:27:44;2.33;;;1.60;;
12788;SDS011;6458;42.710;23.192;2022-09-28T12:30:14;1.30;;;1.30;;
12788;SDS011;6458;42.710;23.192;2022-09-28T12:32:45;1.50;;;1.50;;
12788;SDS011;6458;42.710;23.192;2022-09-28T12:35:14;1.30;;;1.20;;
12788;SDS011;6458;42.710;23.192;2022-09-28T12:37:46;1.20;;;1.20;;
12788;SDS011;6458;42.710;23.192;2022-09-28T12:40:32;1.30;;;1.30;;
12788;SDS011;6458;42.710;23.192;2022-09-28T12:43:08;1.60;;;1.60;;
12788;SDS011;6458;42.710;23.192;2022-09-28T12:45:47;1.87;;;1.50;;
12788;SDS011;6458;42.710;23.192;2022-09-28T12:48:26;1.50;;;1.40;;
12788;SDS011;6458;42.710;23.192;2022-09-28T12:50:59;1.43;;;1.43;;
12788;SDS011;6458;42.710;23.192;2022-09-28T12:53:38;1.30;;;1.30;;
12788;SDS011;6458;42.710;23.192;2022-09-28T12:56:09;1.63;;;1.53;;
12788;SDS011;6458;42.710;23.192;2022-09-28T12:58:43;2.40;;;1.50;;
12788;SDS011;6458;42.710;23.192;2022-09-28T13:01:20;1.63;;;1.63;;
12788;SDS011;6458;42.710;23.192;2022-09-28T13:04:12;2.00;;;1.70;;
12788;SDS011;6458;42.710;23.192;2022-09-28T13:06:51;4.37;;;1.67;;
12788;SDS011;6458;42.710;23.192;2022-09-28T13:09:19;2.47;;;1.60;;
12788;SDS011;6458;42.710;23.192;2022-09-28T13:11:54;3.90;;;1.63;;
12788;SDS011;6458;42.710;23.192;2022-09-28T13:14:46;1.20;;;1.20;;
12788;SDS011;6458;42.710;23.192;2022-09-28T13:17:18;1.50;;;1.50;;
12788;SDS011;6458;42.710;23.192;2022-09-28T13:19:47;1.50;;;1.40;;
12788;SDS011;6458;42.710;23.192;2022-09-28T13:22:20;1.77;;;1.40;;
12788;SDS011;6458;42.710;23.192;2022-09-28T13:24:51;1.30;;;1.30;;
12788;SDS011;6458;42.710;23.192;2022-09-28T13:27:22;1.50;;;1.50;;
12788;SDS011;6458;42.710;23.192;2022-09-28T13:29:51;1.30;;;1.30;;
12788;SDS011;6458;42.710;23.192;2022-09-28T13:32:18;1.53;;;1.43;;
12788;SDS011;6458;42.710;23.192;2022-09-28T13:34:46;1.90;;;1.80;;
12788;SDS011;6458;42.710;23.192;2022-09-28T13:37:18;1.37;;;1.30;;
12788;SDS011;6458;42.710;23.192;2022-09-28T13:39:46;1.60;;;1.30;;
12788;SDS011;6458;42.710;23.192;2022-09-28T13:42:23;1.43;;;1.43;;
12788;SDS011;6458;42.710;23.192;2022-09-28T13:44:56;1.33;;;1.33;;
12788;SDS011;6458;42.710;23.192;2022-09-28T13:47:30;1.30;;;1.30;;
12788;SDS011;6458;42.710;23.192;2022-09-28T13:50:09;1.47;;;1.47;;
12788;SDS011;6458;42.710;23.192;2022-09-28T13:52:43;1.60;;;1.50;;
12788;SDS011;6458;42.710;23.192;2022-09-28T13:55:20;4.00;;;1.80;;
12788;SDS011;6458;42.710;23.192;2022-09-28T13:57:50;1.50;;;1.50;;
12788;SDS011;6458;42.710;23.192;2022-09-28T14:00:19;1.30;;;1.30;;
12788;SDS011;6458;42.710;23.192;2022-09-28T14:02:51;1.77;;;1.67;;
12788;SDS011;6458;42.710;23.192;2022-09-28T14:05:31;1.43;;;1.43;;
12788;SDS011;6458;42.710;23.192;2022-09-28T14:08:13;1.73;;;1.63;;
12788;SDS011;6458;42.710;23.192;2022-09-28T14:10:45;1.33;;;1.33;;
12788;SDS011;6458;42.710;23.192;2022-09-28T14:13:27;1.40;;;1.30;;
12788;SDS011;6458;42.710;23.192;2022-09-28T14:16:22;1.50;;;1.50;;
12788;SDS011;6458;42.710;23.192;2022-09-28T14:18:51;1.70;;;1.60;;
12788;SDS011;6458;42.710;23.192;2022-09-28T14:24:09;1.20;;;1.20;;
12788;SDS011;6458;42.710;23.192;2022-09-28T14:26:50;1.63;;;1.53;;
12788;SDS011;6458;42.710;23.192;2022-09-28T14:29:22;1.43;;;1.40;;
12788;SDS011;6458;42.710;23.192;2022-09-28T14:31:54;2.80;;;1.23;;
12788;SDS011;6458;42.710;23.192;2022-09-28T14:34:29;1.37;;;1.33;;
12788;SDS011;6458;42.710;23.192;2022-09-28T14:36:58;1.50;;;1.50;;
12788;SDS011;6458;42.710;23.192;2022-09-28T14:39:57;3.33;;;1.77;;
12788;SDS011;6458;42.710;23.192;2022-09-28T14:42:42;1.37;;;1.37;;
12788;SDS011;6458;42.710;23.192;2022-09-28T14:45:35;1.70;;;1.60;;
12788;SDS011;6458;42.710;23.192;2022-09-28T14:48:17;1.53;;;1.43;;
12788;SDS011;6458;42.710;23.192;2022-09-28T14:50:45;1.70;;;1.60;;
12788;SDS011;6458;42.710;23.192;2022-09-28T14:53:16;1.50;;;1.40;;
12788;SDS011;6458;42.710;23.192;2022-09-28T14:55:45;1.47;;;1.37;;
12788;SDS011;6458;42.710;23.192;2022-09-28T14:58:19;1.30;;;1.30;;
12788;SDS011;6458;42.710;23.192;2022-09-28T15:00:56;1.70;;;1.60;;
12788;SDS011;6458;42.710;23.192;2022-09-28T15:03:25;1.37;;;1.33;;
12788;SDS011;6458;42.710;23.192;2022-09-28T15:05:52;1.50;;;1.40;;
12788;SDS011;6458;42.710;23.192;2022-09-28T15:08:19;1.40;;;1.40;;
12788;SDS011;6458;42.710;23.192;2022-09-28T15:10:47;1.47;;;1.40;;
12788;SDS011;6458;42.710;23.192;2022-09-28T15:13:16;4.30;;;1.50;;
12788;SDS011;6458;42.710;23.192;2022-09-28T15:15:45;1.23;;;1.20;;
12788;SDS011;6458;42.710;23.192;2022-09-28T15:18:32;1.30;;;1.30;;
12788;SDS011;6458;42.710;23.192;2022-09-28T15:21:07;1.63;;;1.63;;
12788;SDS011;6458;42.710;23.192;2022-09-28T15:23:35;1.77;;;1.73;;